METAR AND TAF INFORMATION
METAR FOR LIMP
ADDS - METARS form results

(1201 UTC 19 September 2020)
Data provider http://aviationweather.gov/metar/data/
 
Forecast for: LIMP (PARMA , IT)
Text: TAF LIMP 191100Z 1912/2012 10007KT 9999 SCT050
Forecast period: 1200 UTC 19 September 2020 to 1200 UTC 20 September 2020
Forecast type: FROM: standard forecast or significant change
Winds: from the E (100 degrees) at 8 MPH (7 knots; 3.6 m/s)
Visibility: 6 or more miles (10+ km)
Ceiling: at least 12,000 feet AGL
Clouds: scattered clouds at 5000 feet AGL
Weather: no significant weather forecast for this period
Text: TEMPO 2009/2012 SHRA
Forecast period: 0900 to 1200 UTC 20 September 2020
Forecast type: TEMPORARY: The following changes expected for less than half the time period
Visibility: missing
Ceiling: unknown
Clouds: missing
Weather: SHRA  (rain showers)

 AIRPORT MAP

 RUNWAY INFORMATION
Runway 02 Runway length 6962 ft Runway width 148 ft
Runway elevation 158 ft Runway displaced threshold 702 ft Runway heading 17
Runway 20 Runway length 6962 ft Runway width 148 ft
Runway elevation 146 ft Runway displaced threshold 597 ft Runway heading 197

 AIRPORT FREQUENCIES
Type APP Name APP Frequency 126.55 MHZ
Type TWR Name TWR Frequency 118.45 MHZ

 AIRPORT NEAR NAVIGATION AIDS
Type NDB Name Parma Frequency 306 KHZ



Powered by Virtual Airlines Manager [v2.6.2]